createdAt,value
2022-12-23T00:00:19.913Z,0.75
2022-12-23T00:02:48.000Z,0.22
2022-12-23T00:05:17.712Z,0.38
2022-12-23T00:07:45.847Z,0.30
2022-12-23T00:10:13.924Z,0.13
2022-12-23T00:12:59.257Z,0.20
2022-12-23T00:15:27.056Z,0.10
2022-12-23T00:17:54.977Z,0.70
2022-12-23T00:20:24.341Z,0.10
2022-12-23T00:23:07.135Z,0.20
2022-12-23T00:25:42.283Z,0.10
2022-12-23T00:28:12.270Z,0.25
2022-12-23T00:30:46.804Z,0.32
2022-12-23T00:33:15.357Z,0.20
2022-12-23T00:35:44.970Z,0.20
2022-12-23T00:38:12.902Z,0.20
2022-12-23T00:40:58.462Z,0.20
2022-12-23T00:43:26.246Z,0.20
2022-12-23T00:45:54.580Z,0.20
2022-12-23T00:48:40.143Z,0.47
2022-12-23T00:51:09.293Z,0.10
2022-12-23T00:53:37.068Z,0.20
2022-12-23T00:56:05.620Z,0.10
2022-12-23T00:58:33.452Z,0.63
2022-12-23T01:01:18.695Z,0.15
2022-12-23T01:04:04.315Z,0.30
2022-12-23T01:06:33.453Z,0.10
2022-12-23T01:09:01.325Z,0.00
2022-12-23T01:11:29.074Z,0.20
2022-12-23T01:13:57.043Z,0.08
2022-12-23T01:16:24.918Z,0.20
2022-12-23T01:18:52.735Z,0.10
2022-12-23T01:21:20.618Z,0.10
2022-12-23T01:23:49.749Z,0.20
2022-12-23T01:26:17.623Z,0.20
2022-12-23T01:28:45.535Z,0.20
2022-12-23T01:31:13.395Z,0.10
2022-12-23T01:33:41.258Z,0.28
2022-12-23T01:36:10.048Z,0.13
2022-12-23T01:38:37.885Z,0.22
2022-12-23T01:41:07.194Z,0.17
2022-12-23T01:43:46.623Z,0.10
2022-12-23T01:46:15.583Z,0.22
2022-12-23T01:48:46.975Z,0.30
2022-12-23T01:51:19.939Z,0.28
2022-12-23T01:53:51.442Z,0.20
2022-12-23T01:56:25.660Z,0.30
2022-12-23T01:58:58.183Z,0.40
2022-12-23T02:01:43.801Z,0.10
2022-12-23T02:04:17.085Z,0.20
2022-12-23T02:07:04.402Z,0.10
2022-12-23T02:09:33.987Z,0.13
2022-12-23T02:12:30.062Z,0.00
2022-12-23T02:15:32.513Z,0.10
2022-12-23T02:18:13.033Z,0.17
2022-12-23T02:21:00.841Z,0.10
2022-12-23T02:24:02.116Z,0.00
2022-12-23T02:26:59.477Z,0.40
2022-12-23T02:30:03.698Z,0.10
2022-12-23T02:32:51.962Z,0.10
2022-12-23T02:35:28.698Z,0.00
2022-12-23T02:38:04.728Z,0.10
2022-12-23T02:40:40.271Z,0.08
2022-12-23T02:43:14.610Z,0.35
2022-12-23T02:45:46.989Z,0.25
2022-12-23T02:48:23.135Z,0.10
2022-12-23T02:50:54.296Z,0.10
2022-12-23T02:55:55.411Z,0.20
2022-12-23T02:58:28.465Z,0.10
2022-12-23T03:00:57.765Z,0.30
2022-12-23T03:03:27.703Z,0.13
2022-12-23T03:05:56.161Z,0.15
2022-12-23T03:08:27.361Z,0.10
2022-12-23T03:13:42.675Z,0.17
2022-12-23T03:16:20.537Z,0.15
2022-12-23T03:19:02.570Z,0.20
2022-12-23T03:21:35.494Z,0.10
2022-12-23T03:24:13.668Z,0.20
2022-12-23T03:26:52.857Z,0.15
2022-12-23T03:29:25.507Z,0.28
2022-12-23T03:31:55.735Z,0.30
2022-12-23T03:34:30.503Z,0.20
2022-12-23T03:37:04.124Z,0.68
2022-12-23T03:39:35.935Z,0.00
2022-12-23T03:42:10.610Z,0.10
2022-12-23T03:45:03.573Z,0.20
2022-12-23T03:47:34.153Z,0.20
2022-12-23T03:50:06.411Z,0.13
2022-12-23T03:52:37.627Z,0.10
2022-12-23T03:57:41.489Z,0.17
2022-12-23T04:00:10.661Z,0.10
2022-12-23T04:02:46.777Z,0.10
2022-12-23T04:05:23.679Z,0.10
2022-12-23T04:07:57.057Z,0.28
2022-12-23T04:10:26.178Z,0.20
2022-12-23T04:12:54.215Z,0.10
2022-12-23T04:15:23.587Z,0.03
2022-12-23T04:17:52.823Z,0.30
2022-12-23T04:20:22.294Z,0.13
2022-12-23T04:22:50.398Z,0.10
2022-12-23T04:25:19.228Z,0.13
2022-12-23T04:27:47.041Z,0.10
2022-12-23T04:30:15.193Z,0.10
2022-12-23T04:32:43.465Z,0.10
2022-12-23T04:35:12.209Z,0.15
2022-12-23T04:37:41.466Z,0.10
2022-12-23T04:40:10.105Z,0.45
2022-12-23T04:42:38.686Z,0.30
2022-12-23T04:45:07.383Z,0.10
2022-12-23T04:47:35.473Z,0.15
2022-12-23T04:50:03.353Z,0.22
2022-12-23T04:52:31.246Z,0.47
2022-12-23T04:55:00.410Z,0.20
2022-12-23T04:57:28.193Z,0.20
2022-12-23T04:59:55.955Z,0.13
2022-12-23T05:02:23.891Z,0.20
2022-12-23T05:04:51.788Z,0.10
2022-12-23T05:07:19.677Z,0.10
2022-12-23T05:09:47.522Z,0.20
2022-12-23T05:12:16.690Z,0.10
2022-12-23T05:14:44.528Z,0.40
2022-12-23T05:17:12.375Z,0.10
2022-12-23T05:19:40.219Z,0.25
2022-12-23T05:22:07.975Z,0.10
2022-12-23T05:24:35.784Z,0.20
2022-12-23T05:27:03.599Z,0.10
2022-12-23T05:29:32.794Z,0.20
2022-12-23T05:32:00.621Z,0.10
2022-12-23T05:34:28.421Z,0.20
2022-12-23T05:36:57.302Z,0.10
2022-12-23T05:39:25.129Z,0.10
2022-12-23T05:41:52.968Z,0.20
2022-12-23T05:44:20.742Z,0.22
2022-12-23T05:46:49.867Z,0.10
2022-12-23T05:49:17.695Z,0.10
2022-12-23T05:51:45.468Z,0.10
2022-12-23T05:54:13.378Z,0.20
2022-12-23T05:56:41.437Z,0.10
2022-12-23T05:59:09.300Z,0.20
2022-12-23T06:01:37.220Z,0.00
2022-12-23T06:04:06.686Z,0.25
2022-12-23T06:06:34.550Z,0.10
2022-12-23T06:09:02.378Z,0.20
2022-12-23T06:11:30.250Z,0.20
2022-12-23T06:13:58.065Z,0.10
2022-12-23T06:16:25.949Z,0.17
2022-12-23T06:18:55.802Z,0.25
2022-12-23T06:21:25.458Z,0.10
2022-12-23T06:23:53.542Z,0.05
2022-12-23T06:26:21.353Z,0.10
2022-12-23T06:28:49.215Z,0.30
2022-12-23T06:31:17.389Z,0.10
2022-12-23T06:33:45.268Z,0.10
2022-12-23T06:36:13.088Z,0.25
2022-12-23T06:38:42.238Z,0.20
2022-12-23T06:41:10.070Z,0.30
2022-12-23T06:43:37.905Z,0.25
2022-12-23T06:46:06.105Z,0.10
2022-12-23T06:48:34.720Z,0.30
2022-12-23T06:51:02.576Z,0.20
2022-12-23T06:53:32.491Z,0.15
2022-12-23T06:56:02.543Z,0.20
2022-12-23T06:58:30.771Z,0.10
2022-12-23T07:00:58.663Z,0.38
2022-12-23T07:03:26.701Z,0.20
2022-12-23T07:05:54.572Z,0.30
2022-12-23T07:08:22.638Z,0.10
2022-12-23T07:10:50.437Z,0.20
2022-12-23T07:13:19.565Z,0.30
2022-12-23T07:15:47.310Z,0.40
2022-12-23T07:18:15.531Z,0.40
2022-12-23T07:20:43.311Z,0.40
2022-12-23T07:23:11.148Z,0.30
2022-12-23T07:25:39.055Z,0.13
2022-12-23T07:28:06.858Z,0.30
2022-12-23T07:30:36.858Z,0.20
2022-12-23T07:33:04.796Z,0.20
2022-12-23T07:35:32.606Z,1.13
2022-12-23T07:38:00.507Z,0.20
2022-12-23T07:40:28.369Z,0.20
2022-12-23T07:42:57.928Z,0.22
2022-12-23T07:45:26.364Z,0.10
2022-12-23T07:47:57.907Z,0.70
2022-12-23T07:50:26.658Z,0.65
2022-12-23T07:52:55.548Z,0.63
2022-12-23T07:55:23.797Z,0.60
2022-12-23T07:57:52.435Z,0.65
2022-12-23T08:00:21.539Z,0.50
2022-12-23T08:02:49.905Z,0.30
2022-12-23T08:05:19.726Z,0.25
2022-12-23T08:07:49.828Z,0.30
2022-12-23T08:10:17.764Z,0.30
2022-12-23T08:12:46.394Z,0.30
2022-12-23T08:15:14.295Z,0.30
2022-12-23T08:17:42.195Z,0.50
2022-12-23T08:20:10.687Z,0.47
2022-12-23T08:22:39.919Z,0.40
2022-12-23T08:25:08.579Z,0.22
2022-12-23T08:27:36.592Z,0.40
2022-12-23T08:30:04.860Z,0.20
2022-12-23T08:32:32.656Z,0.38
2022-12-23T08:35:00.496Z,0.30
2022-12-23T08:37:28.683Z,0.30
2022-12-23T08:39:57.858Z,0.25
2022-12-23T08:42:25.713Z,0.20
2022-12-23T08:44:55.738Z,0.20
2022-12-23T08:47:23.613Z,0.20
2022-12-23T08:49:51.410Z,0.22
2022-12-23T08:52:19.239Z,0.22
2022-12-23T08:54:47.161Z,0.38
2022-12-23T08:57:16.384Z,0.30
2022-12-23T08:59:44.186Z,0.40
2022-12-23T09:02:12.990Z,0.35
2022-12-23T09:04:40.904Z,0.50
2022-12-23T09:07:08.703Z,0.30
2022-12-23T09:09:38.648Z,0.30
2022-12-23T09:12:06.659Z,0.30
2022-12-23T09:14:35.869Z,0.35
2022-12-23T09:17:03.710Z,0.30
2022-12-23T09:19:31.579Z,0.35
2022-12-23T09:21:59.392Z,0.68
2022-12-23T09:24:27.160Z,0.63
2022-12-23T09:26:55.152Z,0.50
2022-12-23T09:29:23.135Z,0.40
2022-12-23T09:31:52.324Z,0.40
2022-12-23T09:34:20.237Z,0.35
2022-12-23T09:36:53.374Z,0.38
2022-12-23T09:39:23.185Z,0.25
2022-12-23T09:42:04.620Z,0.47
2022-12-23T09:44:49.903Z,0.32
2022-12-23T09:47:21.814Z,0.20
2022-12-23T09:49:52.923Z,0.20
2022-12-23T09:54:55.318Z,0.30
2022-12-23T09:57:27.573Z,0.40
2022-12-23T10:00:06.820Z,0.10
2022-12-23T10:02:55.056Z,0.35
2022-12-23T10:05:31.278Z,0.40
2022-12-23T10:08:04.767Z,0.20
2022-12-23T10:10:37.540Z,0.17
2022-12-23T10:13:08.095Z,0.40
2022-12-23T10:15:39.763Z,0.20
2022-12-23T10:18:18.634Z,0.20
2022-12-23T10:20:52.042Z,0.20
2022-12-23T10:23:28.138Z,0.30
2022-12-23T10:25:56.138Z,0.20
2022-12-23T10:28:24.536Z,0.20
2022-12-23T10:31:38.645Z,0.30
2022-12-23T10:34:01.329Z,0.30
2022-12-23T10:36:39.627Z,0.20
2022-12-23T10:39:17.054Z,0.38
2022-12-23T10:41:56.310Z,0.40
2022-12-23T10:44:39.645Z,0.30
2022-12-23T10:47:16.731Z,0.40
2022-12-23T10:49:55.047Z,0.25
2022-12-23T10:52:26.389Z,0.50
2022-12-23T10:54:54.261Z,0.50
2022-12-23T10:57:23.477Z,0.28
2022-12-23T10:59:51.491Z,0.20
2022-12-23T11:02:39.154Z,0.32
2022-12-23T11:05:16.400Z,0.35
2022-12-23T11:07:46.901Z,0.50
2022-12-23T11:10:18.739Z,0.63
2022-12-23T11:12:49.086Z,0.88
2022-12-23T11:15:29.872Z,1.10
2022-12-23T11:18:03.322Z,1.00
2022-12-23T11:20:33.481Z,1.17
2022-12-23T11:23:02.767Z,1.10
2022-12-23T11:25:36.656Z,1.13
2022-12-23T11:28:09.133Z,0.85
2022-12-23T11:30:39.648Z,1.42
2022-12-23T11:33:17.291Z,2.67
2022-12-23T11:35:46.665Z,1.10
2022-12-23T11:38:15.630Z,1.23
2022-12-23T11:40:47.972Z,0.70
2022-12-23T11:43:16.760Z,1.00
2022-12-23T11:45:44.788Z,0.55
2022-12-23T11:48:30.199Z,0.70
2022-12-23T11:51:04.355Z,0.77
2022-12-23T11:53:36.622Z,0.47
2022-12-23T11:56:09.199Z,0.80
2022-12-23T11:58:46.333Z,0.40
2022-12-23T12:01:18.760Z,0.70
2022-12-23T12:03:49.767Z,0.68
2022-12-23T12:06:27.734Z,0.70
2022-12-23T12:08:59.251Z,0.52
2022-12-23T12:11:29.177Z,0.52
2022-12-23T12:14:00.530Z,0.93
2022-12-23T12:16:45.229Z,1.02
2022-12-23T12:19:20.348Z,0.47
2022-12-23T12:21:52.684Z,0.80
2022-12-23T12:24:25.512Z,0.68
2022-12-23T12:26:58.393Z,0.80
2022-12-23T12:29:31.868Z,0.60
2022-12-23T12:32:01.176Z,0.80
2022-12-23T12:34:37.281Z,1.13
2022-12-23T12:37:19.257Z,0.65
2022-12-23T12:39:52.833Z,0.70
2022-12-23T12:42:30.995Z,0.50
2022-12-23T12:45:11.840Z,0.65
2022-12-23T12:48:06.990Z,0.60
2022-12-23T12:50:34.665Z,0.60
2022-12-23T12:53:12.949Z,0.88
2022-12-23T12:55:46.155Z,1.60
2022-12-23T12:58:20.222Z,1.27
2022-12-23T13:01:03.970Z,1.48
2022-12-23T13:04:04.979Z,1.23
2022-12-23T13:06:38.754Z,0.93
2022-12-23T13:09:17.771Z,1.10
2022-12-23T13:11:55.660Z,0.90
2022-12-23T13:14:33.924Z,0.40
2022-12-23T13:17:12.650Z,0.35
2022-12-23T13:19:49.748Z,0.30
2022-12-23T13:22:19.198Z,0.28
2022-12-23T13:24:57.621Z,0.28
2022-12-23T13:27:34.990Z,0.40
2022-12-23T13:30:13.217Z,0.28
2022-12-23T13:33:09.892Z,0.25
2022-12-23T13:36:06.001Z,0.45
2022-12-23T13:38:52.639Z,0.28
2022-12-23T13:41:31.150Z,0.40
2022-12-23T13:44:00.626Z,0.47
2022-12-23T13:46:44.760Z,0.47
2022-12-23T13:49:22.857Z,0.40
2022-12-23T13:51:56.034Z,0.50
2022-12-23T13:54:35.992Z,0.40
2022-12-23T13:57:14.611Z,0.30
2022-12-23T13:59:44.420Z,0.38
2022-12-23T14:02:47.817Z,0.40
2022-12-23T14:05:32.556Z,0.28
2022-12-23T14:08:02.286Z,0.30
2022-12-23T14:10:31.038Z,0.28
2022-12-23T14:13:08.988Z,0.30
2022-12-23T14:15:53.131Z,0.50
2022-12-23T14:18:43.030Z,0.38
2022-12-23T14:21:19.041Z,0.20
2022-12-23T14:24:04.175Z,0.20
2022-12-23T14:26:51.864Z,0.40
2022-12-23T14:29:46.787Z,0.43
2022-12-23T14:32:22.850Z,0.47
2022-12-23T14:35:17.328Z,0.40
2022-12-23T14:38:06.440Z,0.30
2022-12-23T14:41:17.001Z,0.10
2022-12-23T14:43:56.783Z,0.20
2022-12-23T14:47:00.692Z,0.30
2022-12-23T14:49:43.704Z,0.30
2022-12-23T14:52:54.365Z,0.17
2022-12-23T14:55:45.457Z,0.20
2022-12-23T14:59:01.532Z,0.28
2022-12-23T15:01:36.911Z,0.85
2022-12-23T15:04:19.066Z,0.50
2022-12-23T15:06:48.840Z,0.47
2022-12-23T15:09:24.923Z,0.20
2022-12-23T15:11:54.585Z,0.30
2022-12-23T15:14:31.337Z,0.40
2022-12-23T15:16:59.181Z,0.22
2022-12-23T15:19:29.437Z,0.32
2022-12-23T15:22:17.883Z,0.10
2022-12-23T15:24:50.382Z,0.17
2022-12-23T15:27:29.332Z,0.20
2022-12-23T15:29:58.644Z,0.30
2022-12-23T15:32:28.087Z,0.20
2022-12-23T15:35:03.284Z,0.30
2022-12-23T15:37:32.499Z,0.30
2022-12-23T15:40:11.480Z,0.30
2022-12-23T15:42:47.307Z,0.25
2022-12-23T15:45:35.302Z,0.20
2022-12-23T15:48:04.302Z,0.20
2022-12-23T15:50:40.436Z,0.30
2022-12-23T15:53:11.121Z,0.25
2022-12-23T15:55:41.474Z,0.30
2022-12-23T15:58:09.611Z,0.47
2022-12-23T16:00:41.333Z,0.32
2022-12-23T16:03:26.203Z,0.60
2022-12-23T16:05:55.631Z,0.40
2022-12-23T16:08:29.866Z,0.30
2022-12-23T16:11:06.172Z,0.47
2022-12-23T16:13:34.599Z,0.40
2022-12-23T16:16:31.490Z,0.17
2022-12-23T16:18:59.583Z,0.30
2022-12-23T16:21:33.410Z,0.30
2022-12-23T16:24:02.411Z,0.38
2022-12-23T16:26:30.321Z,0.22
2022-12-23T16:29:01.686Z,0.50
2022-12-23T16:31:29.593Z,0.57
2022-12-23T16:33:59.162Z,0.40
2022-12-23T16:36:36.877Z,0.20
2022-12-23T16:39:15.984Z,0.20
2022-12-23T16:41:43.804Z,0.40
2022-12-23T16:44:11.821Z,0.20
2022-12-23T16:46:43.520Z,0.32
2022-12-23T16:49:15.883Z,0.40
2022-12-23T16:51:45.528Z,0.38
2022-12-23T16:54:15.552Z,0.22
2022-12-23T16:56:43.991Z,0.13
2022-12-23T16:59:11.824Z,0.30
2022-12-23T17:01:41.579Z,0.32
2022-12-23T17:04:09.890Z,0.20
2022-12-23T17:06:37.861Z,0.28
2022-12-23T17:09:08.145Z,0.30
2022-12-23T17:11:39.257Z,0.30
2022-12-23T17:16:43.601Z,0.10
2022-12-23T17:19:11.864Z,0.40
2022-12-23T17:21:42.827Z,0.32
2022-12-23T17:24:14.764Z,0.40
2022-12-23T17:26:42.555Z,0.35
2022-12-23T17:29:12.360Z,0.30
2022-12-23T17:31:41.607Z,0.50
2022-12-23T17:34:15.075Z,0.43
2022-12-23T17:36:49.592Z,0.38
2022-12-23T17:39:19.794Z,0.35
2022-12-23T17:41:48.010Z,0.22
2022-12-23T17:44:17.561Z,0.40
2022-12-23T17:46:47.053Z,0.40
2022-12-23T17:49:15.039Z,0.55
2022-12-23T17:51:43.790Z,0.40
2022-12-23T17:54:25.715Z,0.45
2022-12-23T17:56:53.602Z,0.63
2022-12-23T17:59:21.667Z,0.80
2022-12-23T18:01:49.806Z,0.40
2022-12-23T18:04:17.850Z,0.45
2022-12-23T18:06:45.679Z,0.50
2022-12-23T18:09:13.514Z,0.22
2022-12-23T18:11:45.447Z,0.47
2022-12-23T18:14:18.310Z,0.52
2022-12-23T18:16:46.321Z,0.20
2022-12-23T18:19:17.904Z,0.20
2022-12-23T18:21:48.147Z,0.20
2022-12-23T18:24:16.435Z,0.33
2022-12-23T18:26:45.991Z,0.50
2022-12-23T18:29:13.825Z,0.20
2022-12-23T18:31:51.091Z,0.28
2022-12-23T18:34:20.137Z,0.45
2022-12-23T18:36:48.729Z,0.40
2022-12-23T18:39:16.900Z,0.30
2022-12-23T18:41:46.025Z,0.40
2022-12-23T18:44:18.390Z,0.40
2022-12-23T18:46:46.293Z,0.47
2022-12-23T18:49:14.171Z,0.20
2022-12-23T18:51:41.994Z,0.30
2022-12-23T18:54:13.911Z,0.50
2022-12-23T18:56:41.790Z,0.50
2022-12-23T18:59:17.164Z,0.40
2022-12-23T19:01:45.259Z,0.40
2022-12-23T19:04:13.669Z,0.20
2022-12-23T19:06:41.913Z,0.40
2022-12-23T19:09:15.079Z,0.38
2022-12-23T19:11:42.924Z,0.90
2022-12-23T19:14:12.724Z,0.88
2022-12-23T19:16:43.666Z,0.68
2022-12-23T19:19:15.515Z,0.40
2022-12-23T19:21:43.328Z,0.40
2022-12-23T19:24:11.169Z,0.40
2022-12-23T19:26:38.982Z,0.50
2022-12-23T19:29:06.829Z,0.57
2022-12-23T19:31:36.017Z,0.40
2022-12-23T19:34:05.339Z,0.47
2022-12-23T19:36:34.874Z,0.30
2022-12-23T19:39:02.682Z,0.30
2022-12-23T19:41:30.438Z,0.45
2022-12-23T19:43:58.256Z,0.50
2022-12-23T19:46:26.172Z,0.30
2022-12-23T19:48:55.393Z,0.77
2022-12-23T19:51:23.164Z,0.30
2022-12-23T19:53:52.975Z,0.28
2022-12-23T19:56:21.791Z,0.20
2022-12-23T19:58:50.763Z,0.30
2022-12-23T20:01:21.025Z,0.20
2022-12-23T20:03:49.928Z,0.35
2022-12-23T20:06:21.573Z,0.25
2022-12-23T20:08:53.742Z,0.77
2022-12-23T20:11:26.174Z,0.47
2022-12-23T20:13:55.224Z,0.82
2022-12-23T20:16:23.657Z,0.45
2022-12-23T20:18:51.549Z,0.50
2022-12-23T20:21:20.831Z,0.40
2022-12-23T20:23:49.186Z,0.20
2022-12-23T20:26:18.809Z,0.40
2022-12-23T20:28:47.168Z,0.15
2022-12-23T20:31:18.824Z,0.30
2022-12-23T20:33:47.654Z,0.43
2022-12-23T20:36:17.024Z,0.20
2022-12-23T20:38:47.756Z,0.22
2022-12-23T20:41:20.930Z,0.30
2022-12-23T20:44:23.428Z,0.22
2022-12-23T20:46:37.508Z,0.40
2022-12-23T20:49:05.356Z,0.15
2022-12-23T20:51:33.174Z,0.45
2022-12-23T20:54:02.398Z,0.25
2022-12-23T20:56:31.519Z,0.22
2022-12-23T20:59:00.375Z,0.30
2022-12-23T21:01:30.689Z,0.25
2022-12-23T21:04:00.716Z,0.17
2022-12-23T21:06:29.713Z,0.30
2022-12-23T21:08:59.598Z,0.47
2022-12-23T21:11:30.498Z,0.40
2022-12-23T21:14:06.166Z,0.47
2022-12-23T21:16:36.208Z,0.63
2022-12-23T21:19:04.936Z,0.52
2022-12-23T21:21:32.851Z,0.85
2022-12-23T21:24:04.529Z,0.30
2022-12-23T21:26:35.335Z,0.50
2022-12-23T21:29:05.180Z,0.40
2022-12-23T21:31:35.497Z,0.43
2022-12-23T21:34:03.893Z,0.50
2022-12-23T21:36:34.325Z,0.40
2022-12-23T21:39:02.535Z,0.52
2022-12-23T21:41:32.168Z,0.55
2022-12-23T21:44:01.667Z,0.38
2022-12-23T21:46:30.461Z,0.20
2022-12-23T21:48:59.091Z,0.13
2022-12-23T21:51:36.676Z,0.32
2022-12-23T21:54:06.741Z,0.20
2022-12-23T21:56:34.542Z,0.50
2022-12-23T21:59:06.346Z,0.32
2022-12-23T22:01:34.837Z,0.32
2022-12-23T22:04:03.187Z,0.20
2022-12-23T22:06:32.791Z,0.30
2022-12-23T22:09:00.801Z,0.20
2022-12-23T22:11:30.568Z,0.40
2022-12-23T22:13:59.548Z,0.28
2022-12-23T22:16:30.692Z,0.47
2022-12-23T22:21:29.555Z,0.35
2022-12-23T22:23:57.811Z,0.10
2022-12-23T22:26:27.374Z,0.30
2022-12-23T22:28:56.165Z,0.50
2022-12-23T22:31:31.350Z,0.30
2022-12-23T22:33:59.299Z,0.63
2022-12-23T22:36:27.477Z,0.47
2022-12-23T22:38:57.781Z,0.50
2022-12-23T22:41:27.861Z,0.47
2022-12-23T22:43:56.472Z,0.30
2022-12-23T22:46:24.875Z,0.30
2022-12-23T22:48:54.693Z,0.75
2022-12-23T22:51:24.645Z,0.40
2022-12-23T22:53:52.685Z,0.50
2022-12-23T22:56:22.651Z,0.38
2022-12-23T22:58:51.794Z,0.50
2022-12-23T23:01:23.055Z,0.40
2022-12-23T23:03:56.874Z,0.30
2022-12-23T23:06:26.689Z,0.20
2022-12-23T23:08:55.330Z,0.65
2022-12-23T23:11:23.660Z,0.40
2022-12-23T23:13:51.505Z,0.32
2022-12-23T23:16:19.540Z,0.10
2022-12-23T23:18:47.462Z,0.43
2022-12-23T23:21:15.991Z,0.50
2022-12-23T23:23:45.224Z,0.30
2022-12-23T23:26:13.380Z,0.35
2022-12-23T23:28:41.611Z,0.70
2022-12-23T23:31:40.616Z,0.40
2022-12-23T23:33:58.557Z,0.30
2022-12-23T23:36:26.623Z,0.20
2022-12-23T23:38:55.780Z,0.35
2022-12-23T23:41:24.376Z,0.30
2022-12-23T23:43:53.154Z,0.20
2022-12-23T23:46:21.330Z,0.45
2022-12-23T23:48:49.196Z,0.80
2022-12-23T23:51:17.083Z,0.40
2022-12-23T23:53:44.896Z,0.30
2022-12-23T23:56:14.099Z,0.50
2022-12-23T23:58:41.906Z,0.68
